createdAt,value
2019-03-28T00:00:19.830Z,13.10
2019-03-28T00:01:19.729Z,13.10
2019-03-28T00:02:19.654Z,13.60
2019-03-28T00:03:19.524Z,12.50
2019-03-28T00:04:19.423Z,12.40
2019-03-28T00:05:19.325Z,12.30
2019-03-28T00:06:19.225Z,11.90
2019-03-28T00:07:19.139Z,13.00
2019-03-28T00:08:19.021Z,12.60
2019-03-28T00:09:19.478Z,12.40
2019-03-28T00:10:18.819Z,12.20
2019-03-28T00:11:18.735Z,11.90
2019-03-28T00:12:18.636Z,12.00
2019-03-28T00:13:18.519Z,11.80
2019-03-28T00:14:19.206Z,11.70
2019-03-28T00:15:18.318Z,11.30
2019-03-28T00:16:18.219Z,12.00
2019-03-28T00:17:18.135Z,11.80
2019-03-28T00:18:18.024Z,12.00
2019-03-28T00:19:18.321Z,12.50
2019-03-28T00:20:17.817Z,11.90
2019-03-28T00:21:17.716Z,11.90
2019-03-28T00:22:17.640Z,11.70
2019-03-28T00:23:17.517Z,11.80
2019-03-28T00:24:17.415Z,11.70
2019-03-28T00:25:17.316Z,11.30
2019-03-28T00:26:29.505Z,11.70
2019-03-28T00:27:17.132Z,12.30
2019-03-28T00:28:17.016Z,11.40
2019-03-28T00:29:16.913Z,12.60
2019-03-28T00:30:16.827Z,11.90
2019-03-28T00:31:16.715Z,11.90
2019-03-28T00:32:16.633Z,12.30
2019-03-28T00:33:16.513Z,12.80
2019-03-28T00:34:16.412Z,13.50
2019-03-28T00:35:16.313Z,12.30
2019-03-28T00:36:16.214Z,12.60
2019-03-28T00:37:16.127Z,12.30
2019-03-28T00:38:16.016Z,12.10
2019-03-28T00:39:15.913Z,12.50
2019-03-28T00:40:15.811Z,12.40
2019-03-28T00:41:15.714Z,13.00
2019-03-28T00:42:15.628Z,12.30
2019-03-28T00:43:15.512Z,11.90
2019-03-28T00:44:16.081Z,12.20
2019-03-28T00:45:15.310Z,12.60
2019-03-28T00:46:15.211Z,11.80
2019-03-28T00:47:15.125Z,12.40
2019-03-28T00:48:15.010Z,12.30
2019-03-28T00:49:14.909Z,12.20
2019-03-28T00:50:14.809Z,12.20
2019-03-28T00:51:14.709Z,12.10
2019-03-28T00:52:14.625Z,12.00
2019-03-28T00:53:14.512Z,11.80
2019-03-28T00:54:14.408Z,12.10
2019-03-28T00:55:14.308Z,12.30
2019-03-28T00:56:14.211Z,12.00
2019-03-28T00:57:14.128Z,11.90
2019-03-28T00:58:14.008Z,12.40
2019-03-28T00:59:14.023Z,12.00
2019-03-28T01:00:14.302Z,12.00
2019-03-28T01:01:13.709Z,11.90
2019-03-28T01:02:13.626Z,12.00
2019-03-28T01:03:13.509Z,12.20
2019-03-28T01:04:13.408Z,12.00
2019-03-28T01:05:13.313Z,12.10
2019-03-28T01:06:13.312Z,12.20
2019-03-28T01:07:13.123Z,11.60
2019-03-28T01:08:13.011Z,12.00
2019-03-28T01:09:12.909Z,12.10
2019-03-28T01:10:12.809Z,12.30
2019-03-28T01:11:12.710Z,12.20
2019-03-28T01:12:12.626Z,12.50
2019-03-28T01:13:12.613Z,11.90
2019-03-28T01:14:12.408Z,12.10
2019-03-28T01:15:12.309Z,11.60
2019-03-28T01:16:12.213Z,12.30
2019-03-28T01:17:12.127Z,12.00
2019-03-28T01:18:12.010Z,12.60
2019-03-28T01:19:11.907Z,12.10
2019-03-28T01:20:11.812Z,11.90
2019-03-28T01:21:11.711Z,12.50
2019-03-28T01:22:11.625Z,12.90
2019-03-28T01:23:11.507Z,12.20
2019-03-28T01:24:11.414Z,12.50
2019-03-28T01:25:11.312Z,12.20
2019-03-28T01:26:11.214Z,13.30
2019-03-28T01:27:11.131Z,12.50
2019-03-28T01:28:11.031Z,12.30
2019-03-28T01:29:10.911Z,12.90
2019-03-28T01:30:10.808Z,12.60
2019-03-28T01:31:10.712Z,13.00
2019-03-28T01:32:10.611Z,12.60
2019-03-28T01:33:10.526Z,13.20
2019-03-28T01:34:10.410Z,13.50
2019-03-28T01:35:10.311Z,13.20
2019-03-28T01:36:10.210Z,12.80
2019-03-28T01:37:10.115Z,13.20
2019-03-28T01:38:10.032Z,13.20
2019-03-28T01:39:10.219Z,13.00
2019-03-28T01:40:09.813Z,13.00
2019-03-28T01:41:09.711Z,12.70
2019-03-28T01:42:09.615Z,13.40
2019-03-28T01:43:09.529Z,13.70
2019-03-28T01:44:09.415Z,13.40
2019-03-28T01:45:09.313Z,12.60
2019-03-28T01:46:09.213Z,13.30
2019-03-28T01:47:09.112Z,12.40
2019-03-28T01:48:09.028Z,13.00
2019-03-28T01:49:08.913Z,13.30
2019-03-28T01:50:08.814Z,12.90
2019-03-28T01:51:08.714Z,13.10
2019-03-28T01:52:08.613Z,13.00
2019-03-28T01:53:08.537Z,12.80
2019-03-28T01:54:08.419Z,13.20
2019-03-28T01:55:08.314Z,13.20
2019-03-28T01:56:08.511Z,13.50
2019-03-28T01:57:11.365Z,12.90
2019-03-28T01:58:08.032Z,13.20
2019-03-28T01:59:07.915Z,13.30
2019-03-28T02:00:07.818Z,12.80
2019-03-28T02:01:07.717Z,12.90
2019-03-28T02:02:07.624Z,13.90
2019-03-28T02:03:07.636Z,13.30
2019-03-28T02:04:07.419Z,12.50
2019-03-28T02:05:07.319Z,12.30
2019-03-28T02:06:07.221Z,13.30
2019-03-28T02:07:07.119Z,12.40
2019-03-28T02:08:07.039Z,13.00
2019-03-28T02:09:06.923Z,12.60
2019-03-28T02:10:06.921Z,12.90
2019-03-28T02:11:06.719Z,12.30
2019-03-28T02:12:06.622Z,13.10
2019-03-28T02:13:06.540Z,13.20
2019-03-28T02:14:06.423Z,12.30
2019-03-28T02:15:06.337Z,13.30
2019-03-28T02:16:06.226Z,13.90
2019-03-28T02:17:06.229Z,13.50
2019-03-28T02:18:06.039Z,12.80
2019-03-28T02:19:05.924Z,13.80
2019-03-28T02:20:05.824Z,13.90
2019-03-28T02:21:05.725Z,13.80
2019-03-28T02:22:05.627Z,14.30
2019-03-28T02:23:05.543Z,14.00
2019-03-28T02:24:05.530Z,14.00
2019-03-28T02:25:05.329Z,14.60
2019-03-28T02:26:05.229Z,13.70
2019-03-28T02:27:05.127Z,14.20
2019-03-28T02:28:05.046Z,14.30
2019-03-28T02:29:04.928Z,14.40
2019-03-28T02:30:04.830Z,14.70
2019-03-28T02:31:04.882Z,14.90
2019-03-28T02:32:04.630Z,14.00
2019-03-28T02:33:04.547Z,14.30
2019-03-28T02:34:04.442Z,14.70
2019-03-28T02:35:04.335Z,14.20
2019-03-28T02:36:04.235Z,14.10
2019-03-28T02:37:04.132Z,14.70
2019-03-28T02:38:04.156Z,14.20
2019-03-28T02:39:03.940Z,15.10
2019-03-28T02:40:03.834Z,14.90
2019-03-28T02:41:03.742Z,14.30
2019-03-28T02:42:03.634Z,15.10
2019-03-28T02:43:03.565Z,14.60
2019-03-28T02:44:03.556Z,15.20
2019-03-28T02:45:03.842Z,14.80
2019-03-28T02:46:03.242Z,15.50
2019-03-28T02:47:03.136Z,14.90
2019-03-28T02:48:03.063Z,14.10
2019-03-28T02:49:02.939Z,14.60
2019-03-28T02:50:02.841Z,14.80
2019-03-28T02:51:03.772Z,14.60
2019-03-28T02:52:02.765Z,14.40
2019-03-28T02:53:02.557Z,15.40
2019-03-28T02:54:02.442Z,15.40
2019-03-28T02:55:02.384Z,14.70
2019-03-28T02:56:02.242Z,15.30
2019-03-28T02:57:02.141Z,15.10
2019-03-28T02:58:02.061Z,15.00
2019-03-28T02:59:02.842Z,15.70
2019-03-28T03:00:01.848Z,15.40
2019-03-28T03:01:01.747Z,15.20
2019-03-28T03:02:01.646Z,15.40
2019-03-28T03:03:01.567Z,15.50
2019-03-28T03:04:01.459Z,16.10
2019-03-28T03:05:01.348Z,15.50
2019-03-28T03:06:01.256Z,15.40
2019-03-28T03:07:01.153Z,15.20
2019-03-28T03:08:01.071Z,14.80
2019-03-28T03:09:00.952Z,15.20
2019-03-28T03:10:00.860Z,15.30
2019-03-28T03:11:00.755Z,15.60
2019-03-28T03:12:01.276Z,15.20
2019-03-28T03:13:00.556Z,15.00
2019-03-28T03:14:00.472Z,15.30
2019-03-28T03:15:00.478Z,15.20
2019-03-28T03:16:00.259Z,15.10
2019-03-28T03:17:00.160Z,14.60
2019-03-28T03:18:00.059Z,14.90
2019-03-28T03:19:00.087Z,15.20
2019-03-28T03:19:59.859Z,14.70
2019-03-28T03:20:59.763Z,15.50
2019-03-28T03:21:59.661Z,14.60
2019-03-28T03:22:59.564Z,14.60
2019-03-28T03:23:59.484Z,14.80
2019-03-28T03:24:59.364Z,15.10
2019-03-28T03:25:59.267Z,15.40
2019-03-28T03:26:59.171Z,15.00
2019-03-28T03:27:59.491Z,15.40
2019-03-28T03:28:58.984Z,15.20
2019-03-28T03:29:58.872Z,15.30
2019-03-28T03:30:58.778Z,15.50
2019-03-28T03:31:58.673Z,16.10
2019-03-28T03:32:58.572Z,15.70
2019-03-28T03:33:58.492Z,16.70
2019-03-28T03:34:59.465Z,17.00
2019-03-28T03:35:58.274Z,16.20
2019-03-28T03:36:58.193Z,16.10
2019-03-28T03:37:58.089Z,16.20
2019-03-28T03:38:57.992Z,16.30
2019-03-28T03:39:57.874Z,15.90
2019-03-28T03:40:57.775Z,15.50
2019-03-28T03:41:57.677Z,15.50
2019-03-28T03:42:57.580Z,15.10
2019-03-28T03:43:57.499Z,16.10
2019-03-28T03:44:57.384Z,15.50
2019-03-28T03:45:57.303Z,15.90
2019-03-28T03:46:57.179Z,16.60
2019-03-28T03:47:57.081Z,16.20
2019-03-28T03:48:57.003Z,16.20
2019-03-28T03:49:56.884Z,16.10
2019-03-28T03:50:56.790Z,17.90
2019-03-28T03:51:56.685Z,17.40
2019-03-28T03:52:56.586Z,18.70
2019-03-28T03:53:56.505Z,18.90
2019-03-28T03:54:56.383Z,19.20
2019-03-28T03:55:56.288Z,19.20
2019-03-28T03:56:56.185Z,19.00
2019-03-28T03:57:57.774Z,19.00
2019-03-28T03:58:56.004Z,18.60
2019-03-28T03:59:55.886Z,17.70
2019-03-28T04:00:55.901Z,17.60
2019-03-28T04:01:55.690Z,17.80
2019-03-28T04:02:55.590Z,17.40
2019-03-28T04:03:55.896Z,17.90
2019-03-28T04:04:56.890Z,17.30
2019-03-28T04:05:55.299Z,17.30
2019-03-28T04:06:55.193Z,18.40
2019-03-28T04:07:55.094Z,17.90
2019-03-28T04:08:55.011Z,18.70
2019-03-28T04:09:54.891Z,17.90
2019-03-28T04:10:54.795Z,18.70
2019-03-28T04:11:54.694Z,18.70
2019-03-28T04:12:54.599Z,17.80
2019-03-28T04:13:54.512Z,18.70
2019-03-28T04:14:54.504Z,17.80
2019-03-28T04:15:54.292Z,19.40
2019-03-28T04:16:54.195Z,19.30
2019-03-28T04:17:54.097Z,19.00
2019-03-28T04:18:54.018Z,19.40
2019-03-28T04:19:53.914Z,19.90
2019-03-28T04:20:53.804Z,19.30
2019-03-28T04:21:53.804Z,19.90
2019-03-28T04:22:53.597Z,20.70
2019-03-28T04:23:53.512Z,19.40
2019-03-28T04:24:53.399Z,21.40
2019-03-28T04:25:53.299Z,21.90
2019-03-28T04:26:53.198Z,21.30
2019-03-28T04:27:53.103Z,22.10
2019-03-28T04:28:53.121Z,22.00
2019-03-28T04:29:52.901Z,22.10
2019-03-28T04:30:52.798Z,22.80
2019-03-28T04:31:52.700Z,23.20
2019-03-28T04:32:52.604Z,23.20
2019-03-28T04:33:52.518Z,23.00
2019-03-28T04:34:52.403Z,23.70
2019-03-28T04:35:52.410Z,23.90
2019-03-28T04:36:52.202Z,24.80
2019-03-28T04:37:52.102Z,25.60
2019-03-28T04:38:52.024Z,26.10
2019-03-28T04:39:51.904Z,27.00
2019-03-28T04:40:51.808Z,27.00
2019-03-28T04:41:51.702Z,27.00
2019-03-28T04:42:51.707Z,27.00
2019-03-28T04:43:53.985Z,28.00
2019-03-28T04:44:51.402Z,28.00
2019-03-28T04:45:51.303Z,28.20
2019-03-28T04:46:51.207Z,28.70
2019-03-28T04:47:51.106Z,29.80
2019-03-28T04:48:51.023Z,29.60
2019-03-28T04:49:51.035Z,29.10
2019-03-28T04:50:50.814Z,29.60
2019-03-28T04:51:50.706Z,29.10
2019-03-28T04:52:52.889Z,30.00
2019-03-28T04:53:50.510Z,33.60
2019-03-28T04:54:50.423Z,32.60
2019-03-28T04:55:50.308Z,31.80
2019-03-28T04:56:50.325Z,33.70
2019-03-28T04:57:50.109Z,32.90
2019-03-28T04:58:50.024Z,32.90
2019-03-28T04:59:49.907Z,33.80
2019-03-28T05:00:49.808Z,35.00
2019-03-28T05:02:01.294Z,33.40
2019-03-28T05:02:49.612Z,33.50
2019-03-28T05:03:49.617Z,33.00
2019-03-28T05:04:49.440Z,33.90
2019-03-28T05:05:49.312Z,33.60
2019-03-28T05:06:49.214Z,32.10
2019-03-28T05:07:49.134Z,31.80
2019-03-28T05:08:49.011Z,33.10
2019-03-28T05:09:48.928Z,31.60
2019-03-28T05:10:48.916Z,30.70
2019-03-28T05:11:48.713Z,31.40
2019-03-28T05:12:48.613Z,32.10
2019-03-28T05:13:48.518Z,33.00
2019-03-28T05:14:48.433Z,31.60
2019-03-28T05:15:48.322Z,32.70
2019-03-28T05:16:48.447Z,32.10
2019-03-28T05:17:48.214Z,31.90
2019-03-28T05:18:48.018Z,32.60
2019-03-28T05:19:48.367Z,33.60
2019-03-28T05:20:47.816Z,33.00
2019-03-28T05:21:47.716Z,35.40
2019-03-28T05:22:48.481Z,38.70
2019-03-28T05:23:47.519Z,36.90
2019-03-28T05:24:47.542Z,35.40
2019-03-28T05:25:47.319Z,36.40
2019-03-28T05:26:47.231Z,34.10
2019-03-28T05:27:47.126Z,32.80
2019-03-28T05:28:57.015Z,31.70
2019-03-28T05:29:46.937Z,31.10
2019-03-28T05:30:46.821Z,30.00
2019-03-28T05:31:46.831Z,28.60
2019-03-28T05:32:46.620Z,28.50
2019-03-28T05:33:46.523Z,27.70
2019-03-28T05:34:46.446Z,27.40
2019-03-28T05:35:46.331Z,28.70
2019-03-28T05:36:46.225Z,30.00
2019-03-28T05:37:46.125Z,29.40
2019-03-28T05:38:46.130Z,29.10
2019-03-28T05:39:45.943Z,28.10
2019-03-28T05:40:45.830Z,27.90
2019-03-28T05:41:45.726Z,29.10
2019-03-28T05:42:45.630Z,29.60
2019-03-28T05:43:45.698Z,29.10
2019-03-28T05:44:45.444Z,30.30
2019-03-28T05:45:47.628Z,29.90
2019-03-28T05:46:45.230Z,28.40
2019-03-28T05:47:45.134Z,31.30
2019-03-28T05:48:45.033Z,30.00
2019-03-28T05:49:44.945Z,30.50
2019-03-28T05:50:44.833Z,28.70
2019-03-28T05:51:44.732Z,29.70
2019-03-28T05:52:44.632Z,32.00
2019-03-28T05:53:44.531Z,34.60
2019-03-28T05:54:44.458Z,31.20
2019-03-28T05:55:44.333Z,35.30
2019-03-28T05:56:44.235Z,33.70
2019-03-28T05:57:44.139Z,33.50
2019-03-28T05:58:44.037Z,31.50
2019-03-28T05:59:43.953Z,31.10
2019-03-28T06:00:43.843Z,32.80
2019-03-28T06:01:43.737Z,33.00
2019-03-28T06:02:43.644Z,34.90
2019-03-28T06:03:43.537Z,36.00
2019-03-28T06:04:43.459Z,37.80
2019-03-28T06:05:43.340Z,40.40
2019-03-28T06:06:43.725Z,39.40
2019-03-28T06:07:43.210Z,41.00
2019-03-28T06:08:43.042Z,37.30
2019-03-28T06:09:42.958Z,35.50
2019-03-28T06:10:42.844Z,31.90
2019-03-28T06:11:42.743Z,33.50
2019-03-28T06:12:42.646Z,32.60
2019-03-28T06:13:42.544Z,31.00
2019-03-28T06:14:42.461Z,29.30
2019-03-28T06:15:42.410Z,30.20
2019-03-28T06:16:42.249Z,30.80
2019-03-28T06:17:42.147Z,31.10
2019-03-28T06:18:42.053Z,31.90
2019-03-28T06:19:41.965Z,30.20
2019-03-28T06:20:41.850Z,30.80
2019-03-28T06:21:41.747Z,29.80
2019-03-28T06:22:41.688Z,31.60
2019-03-28T06:23:41.549Z,28.10
2019-03-28T06:24:41.467Z,28.50
2019-03-28T06:25:41.355Z,28.10
2019-03-28T06:26:41.452Z,28.00
2019-03-28T06:27:41.156Z,28.30
2019-03-28T06:28:41.059Z,28.40
2019-03-28T06:29:40.970Z,28.00
2019-03-28T06:30:40.855Z,27.50
2019-03-28T06:31:40.757Z,28.30
2019-03-28T06:32:43.366Z,28.20
2019-03-28T06:33:40.674Z,27.80
2019-03-28T06:34:40.472Z,30.70
2019-03-28T06:35:40.361Z,32.20
2019-03-28T06:36:40.509Z,30.30
2019-03-28T06:37:40.158Z,28.50
2019-03-28T06:38:40.063Z,28.90
2019-03-28T06:39:39.979Z,25.80
2019-03-28T06:40:39.863Z,25.10
2019-03-28T06:41:39.764Z,24.50
2019-03-28T06:42:39.662Z,26.10
2019-03-28T06:43:41.977Z,24.90
2019-03-28T06:44:39.469Z,25.20
2019-03-28T06:45:39.384Z,26.00
2019-03-28T06:46:39.267Z,25.10
2019-03-28T06:47:39.269Z,24.70
2019-03-28T06:48:39.070Z,24.80
2019-03-28T06:49:38.978Z,23.10
2019-03-28T06:50:38.891Z,24.70
2019-03-28T06:51:38.778Z,24.60
2019-03-28T06:52:38.677Z,25.50
2019-03-28T06:53:38.572Z,24.70
2019-03-28T06:54:38.578Z,27.10
2019-03-28T06:55:38.396Z,27.80
2019-03-28T06:56:38.279Z,25.70
2019-03-28T06:57:38.186Z,24.80
2019-03-28T06:58:38.082Z,25.80
2019-03-28T06:59:38.058Z,23.90
2019-03-28T07:00:37.898Z,25.20
2019-03-28T07:01:37.800Z,23.60
2019-03-28T07:02:37.681Z,24.10
2019-03-28T07:03:38.415Z,22.20
2019-03-28T07:04:37.484Z,23.80
2019-03-28T07:05:37.404Z,23.00
2019-03-28T07:06:37.293Z,23.60
2019-03-28T07:07:37.186Z,25.10
2019-03-28T07:08:37.089Z,24.00
2019-03-28T07:09:36.990Z,22.50
2019-03-28T07:10:36.908Z,25.50
2019-03-28T07:11:36.789Z,23.50
2019-03-28T07:12:36.692Z,25.70
2019-03-28T07:13:36.633Z,25.70
2019-03-28T07:14:36.494Z,25.30
2019-03-28T07:15:36.815Z,24.20
2019-03-28T07:16:36.311Z,28.00
2019-03-28T07:17:36.199Z,24.00
2019-03-28T07:18:36.097Z,25.30
2019-03-28T07:19:36.002Z,23.70
2019-03-28T07:20:35.929Z,24.20
2019-03-28T07:21:35.799Z,24.80
2019-03-28T07:22:35.701Z,23.10
2019-03-28T07:23:35.609Z,22.50
2019-03-28T07:24:35.511Z,21.30
2019-03-28T07:25:35.422Z,21.30
2019-03-28T07:26:35.306Z,23.10
2019-03-28T07:27:35.203Z,22.50
2019-03-28T07:28:35.105Z,22.50
2019-03-28T07:29:35.006Z,25.00
2019-03-28T07:30:34.924Z,22.40
2019-03-28T07:31:35.688Z,22.50
2019-03-28T07:32:34.708Z,22.00
2019-03-28T07:33:34.611Z,21.90
2019-03-28T07:34:34.513Z,23.30
2019-03-28T07:35:34.436Z,23.50
2019-03-28T07:36:34.311Z,22.10
2019-03-28T07:37:34.215Z,20.90
2019-03-28T07:38:34.114Z,22.10
2019-03-28T07:39:34.016Z,22.40
2019-03-28T07:40:33.935Z,20.40
2019-03-28T07:41:33.818Z,20.80
2019-03-28T07:42:33.718Z,20.80
2019-03-28T07:43:33.621Z,19.50
2019-03-28T07:44:33.830Z,19.80
2019-03-28T07:45:34.589Z,20.50
2019-03-28T07:46:33.322Z,22.00
2019-03-28T07:47:33.224Z,21.80
2019-03-28T07:48:33.135Z,18.90
2019-03-28T07:49:33.026Z,20.60
2019-03-28T07:50:33.579Z,20.40
2019-03-28T07:51:32.941Z,19.60
2019-03-28T07:52:32.732Z,19.30
2019-03-28T07:53:32.630Z,18.20
2019-03-28T07:54:32.531Z,18.40
2019-03-28T07:55:32.447Z,19.40
2019-03-28T07:56:32.332Z,19.40
2019-03-28T07:57:32.233Z,18.30
2019-03-28T07:58:32.240Z,19.40
2019-03-28T07:59:32.071Z,19.00
2019-03-28T08:00:31.954Z,19.50
2019-03-28T08:01:31.839Z,18.80
2019-03-28T08:02:31.750Z,17.80
2019-03-28T08:03:31.641Z,18.30
2019-03-28T08:04:31.543Z,18.10
2019-03-28T08:05:31.460Z,18.90
2019-03-28T08:06:31.344Z,18.30
2019-03-28T08:07:43.965Z,17.60
2019-03-28T08:08:38.796Z,18.50
2019-03-28T08:09:36.665Z,18.40
2019-03-28T08:10:30.963Z,19.40
2019-03-28T08:11:30.963Z,19.80
2019-03-28T08:12:30.801Z,20.50
2019-03-28T08:13:30.651Z,19.20
2019-03-28T08:14:30.554Z,20.20
2019-03-28T08:15:30.474Z,20.90
2019-03-28T08:16:30.357Z,20.30
2019-03-28T08:17:30.262Z,19.80
2019-03-28T08:18:30.156Z,19.20
2019-03-28T08:19:30.060Z,18.10
2019-03-28T08:20:29.979Z,19.20
2019-03-28T08:21:29.861Z,17.80
2019-03-28T08:22:29.980Z,17.60
2019-03-28T08:23:29.665Z,16.70
2019-03-28T08:24:29.569Z,18.60
2019-03-28T08:25:29.471Z,17.40
2019-03-28T08:26:30.367Z,18.10
2019-03-28T08:27:29.269Z,18.20
2019-03-28T08:28:29.169Z,18.80
2019-03-28T08:29:29.076Z,18.40
2019-03-28T08:30:29.007Z,18.20
2019-03-28T08:31:28.873Z,17.50
2019-03-28T08:32:28.777Z,17.40
2019-03-28T08:33:28.673Z,17.00
2019-03-28T08:34:31.159Z,18.70
2019-03-28T08:35:28.484Z,19.00
2019-03-28T08:36:28.395Z,18.10
2019-03-28T08:37:28.281Z,18.00
2019-03-28T08:38:28.188Z,19.30
2019-03-28T08:39:28.562Z,18.30
2019-03-28T08:40:27.988Z,15.80
2019-03-28T08:41:27.911Z,14.90
2019-03-28T08:42:27.787Z,16.70
2019-03-28T08:43:27.689Z,17.80
2019-03-28T08:44:27.589Z,16.60
2019-03-28T08:45:27.493Z,17.20
2019-03-28T08:46:27.413Z,15.40
2019-03-28T08:47:27.295Z,15.40
2019-03-28T08:48:27.195Z,15.10
2019-03-28T08:49:27.098Z,14.50
2019-03-28T08:50:27.000Z,14.00
2019-03-28T08:51:27.464Z,14.30
2019-03-28T08:52:26.800Z,13.20
2019-03-28T08:53:26.701Z,13.70
2019-03-28T08:54:26.605Z,13.70
2019-03-28T08:55:26.507Z,14.00
2019-03-28T08:56:26.429Z,13.60
2019-03-28T08:57:26.308Z,12.80
2019-03-28T08:58:26.209Z,13.90
2019-03-28T08:59:26.115Z,13.40
2019-03-28T09:00:33.180Z,13.60
2019-03-28T09:01:25.941Z,14.30
2019-03-28T09:02:25.820Z,14.20
2019-03-28T09:03:25.718Z,15.10
2019-03-28T09:04:25.623Z,13.30
2019-03-28T09:05:25.527Z,14.10
2019-03-28T09:06:25.439Z,14.20
2019-03-28T09:07:25.327Z,12.30
2019-03-28T09:08:25.231Z,12.30
2019-03-28T09:09:25.126Z,12.10
2019-03-28T09:10:25.030Z,11.70
2019-03-28T09:11:24.950Z,12.20
2019-03-28T09:12:24.835Z,11.80
2019-03-28T09:13:24.735Z,12.10
2019-03-28T09:14:24.641Z,10.60
2019-03-28T09:15:24.543Z,10.50
2019-03-28T09:16:24.475Z,10.80
2019-03-28T09:17:24.345Z,9.00
2019-03-28T09:18:24.245Z,9.40
2019-03-28T09:19:24.149Z,9.30
2019-03-28T09:20:24.053Z,9.70
2019-03-28T09:21:23.967Z,9.80
2019-03-28T09:22:23.855Z,10.00
2019-03-28T09:23:23.758Z,9.80
2019-03-28T09:24:23.660Z,9.10
2019-03-28T09:25:23.558Z,9.10
2019-03-28T09:26:23.484Z,8.70
2019-03-28T09:27:23.367Z,8.80
2019-03-28T09:28:23.372Z,9.30
2019-03-28T09:29:23.173Z,9.20
2019-03-28T09:30:23.072Z,8.60
2019-03-28T09:31:22.990Z,8.50
2019-03-28T09:32:22.881Z,8.00
2019-03-28T09:33:22.779Z,8.10
2019-03-28T09:34:22.681Z,8.30
2019-03-28T09:35:22.699Z,8.90
2019-03-28T09:36:22.504Z,8.30
2019-03-28T09:37:22.387Z,9.20
2019-03-28T09:38:22.305Z,8.30
2019-03-28T09:39:24.715Z,7.70
2019-03-28T09:40:22.098Z,8.60
2019-03-28T09:41:22.018Z,8.50
2019-03-28T09:42:21.902Z,8.70
2019-03-28T09:43:21.806Z,7.90
2019-03-28T09:44:21.712Z,7.10
2019-03-28T09:45:21.624Z,7.10
2019-03-28T09:46:21.527Z,6.60
2019-03-28T09:47:21.418Z,6.60
2019-03-28T09:48:21.317Z,5.80
2019-03-28T09:49:21.325Z,6.00
2019-03-28T09:50:21.130Z,5.50
2019-03-28T09:51:21.045Z,5.30
2019-03-28T09:52:20.932Z,4.90
2019-03-28T09:53:20.832Z,4.70
2019-03-28T09:54:20.736Z,4.30
2019-03-28T09:55:20.641Z,4.80
2019-03-28T09:56:20.685Z,4.40
2019-03-28T09:57:20.446Z,4.20
2019-03-28T09:58:20.350Z,3.30
2019-03-28T09:59:20.255Z,3.50
2019-03-28T10:00:20.157Z,3.20
2019-03-28T10:01:20.075Z,3.20
2019-03-28T10:02:19.964Z,3.10
2019-03-28T10:03:19.979Z,3.00
2019-03-28T10:04:19.773Z,2.80
2019-03-28T10:05:19.679Z,3.40
2019-03-28T10:06:19.598Z,3.20
2019-03-28T10:07:19.491Z,3.50
2019-03-28T10:08:19.393Z,3.30
2019-03-28T10:09:19.293Z,3.10
2019-03-28T10:10:19.301Z,3.30
2019-03-28T10:11:19.118Z,3.50
2019-03-28T10:12:19.007Z,3.70
2019-03-28T10:13:18.910Z,2.90
2019-03-28T10:14:18.814Z,3.50
2019-03-28T10:15:18.737Z,4.20
2019-03-28T10:16:18.626Z,4.10
2019-03-28T10:17:18.649Z,3.10
2019-03-28T10:18:18.438Z,3.00
2019-03-28T10:19:18.338Z,3.10
2019-03-28T10:20:18.248Z,3.10
2019-03-28T10:21:18.156Z,3.20
2019-03-28T10:22:18.069Z,3.40
2019-03-28T10:23:17.959Z,3.50
2019-03-28T10:24:17.966Z,3.10
2019-03-28T10:25:17.768Z,3.30
2019-03-28T10:26:17.676Z,3.40
2019-03-28T10:27:19.205Z,3.00
2019-03-28T10:28:17.481Z,3.20
2019-03-28T10:29:17.385Z,3.40
2019-03-28T10:30:17.436Z,2.60
2019-03-28T10:31:17.202Z,2.70
2019-03-28T10:32:17.119Z,2.90
2019-03-28T10:33:17.005Z,2.80
2019-03-28T10:34:16.908Z,2.60
2019-03-28T10:35:16.818Z,2.70
2019-03-28T10:36:16.727Z,2.70
2019-03-28T10:37:16.641Z,2.90
2019-03-28T10:38:16.529Z,2.80
2019-03-28T10:39:16.438Z,2.90
2019-03-28T10:40:16.340Z,2.80
2019-03-28T10:41:16.243Z,3.00
2019-03-28T10:42:16.172Z,2.70
2019-03-28T10:43:16.052Z,3.10
2019-03-28T10:44:15.960Z,3.00
2019-03-28T10:45:15.865Z,3.00
2019-03-28T10:46:15.769Z,2.80
2019-03-28T10:47:15.691Z,3.30
2019-03-28T10:48:15.583Z,2.90
2019-03-28T10:49:15.766Z,2.80
2019-03-28T10:50:15.389Z,2.80
2019-03-28T10:51:15.298Z,2.60
2019-03-28T10:52:15.215Z,2.50
2019-03-28T10:53:15.104Z,2.70
2019-03-28T10:54:20.590Z,2.70
2019-03-28T10:55:14.915Z,2.60
2019-03-28T10:56:21.528Z,2.90
2019-03-28T10:57:28.913Z,3.20
2019-03-28T10:58:18.792Z,2.60
2019-03-28T10:59:23.137Z,2.60
2019-03-28T11:00:24.067Z,2.90
2019-03-28T11:01:16.658Z,2.90
2019-03-28T11:02:14.270Z,2.80
2019-03-28T11:03:14.169Z,3.00
2019-03-28T11:04:14.064Z,3.50
2019-03-28T11:05:14.480Z,3.10
2019-03-28T11:06:13.875Z,3.00
2019-03-28T11:07:13.796Z,3.10
2019-03-28T11:08:13.688Z,2.90
2019-03-28T11:09:13.592Z,3.00
2019-03-28T11:10:13.498Z,3.10
2019-03-28T11:11:13.404Z,3.20
2019-03-28T11:12:13.323Z,3.20
2019-03-28T11:13:13.244Z,3.20
2019-03-28T11:14:13.116Z,2.80
2019-03-28T11:15:13.035Z,2.80
2019-03-28T11:16:15.084Z,2.90
2019-03-28T11:17:12.849Z,3.00
2019-03-28T11:18:13.739Z,3.00
2019-03-28T11:19:15.641Z,3.00
2019-03-28T11:20:12.547Z,3.20
2019-03-28T11:21:12.450Z,3.10
2019-03-28T11:22:12.376Z,3.20
2019-03-28T11:23:12.261Z,3.90
2019-03-28T11:24:12.166Z,3.40
2019-03-28T11:25:12.086Z,3.00
2019-03-28T11:26:11.977Z,3.00
2019-03-28T11:27:11.897Z,3.50
2019-03-28T11:28:11.784Z,2.70
2019-03-28T11:29:11.688Z,3.20
2019-03-28T11:30:11.595Z,3.30
2019-03-28T11:31:11.498Z,3.00
2019-03-28T11:32:11.418Z,3.10
2019-03-28T11:33:11.408Z,3.90
2019-03-28T11:34:11.207Z,3.60
2019-03-28T11:35:11.113Z,3.40
2019-03-28T11:36:11.017Z,3.10
2019-03-28T11:37:24.952Z,3.30
2019-03-28T11:38:10.826Z,2.90
2019-03-28T11:39:10.729Z,3.50
2019-03-28T11:40:10.633Z,3.00
2019-03-28T11:41:10.536Z,2.70
2019-03-28T11:42:10.477Z,3.10
2019-03-28T11:43:10.344Z,2.90
2019-03-28T11:44:10.247Z,2.90
2019-03-28T11:45:10.154Z,2.80
2019-03-28T11:46:10.055Z,2.90
2019-03-28T11:47:10.076Z,3.40
2019-03-28T11:48:09.862Z,3.20
2019-03-28T11:49:09.775Z,3.00
2019-03-28T11:50:09.673Z,2.90
2019-03-28T11:51:09.582Z,3.10
2019-03-28T11:52:09.497Z,3.10
2019-03-28T11:53:09.381Z,3.00
2019-03-28T11:54:09.408Z,3.50
2019-03-28T11:55:09.189Z,3.30
2019-03-28T11:56:09.095Z,3.20
2019-03-28T11:57:09.013Z,2.80
2019-03-28T11:58:08.904Z,3.10
2019-03-28T11:59:08.810Z,2.70
2019-03-28T12:00:08.713Z,2.60
2019-03-28T12:01:08.721Z,2.80
2019-03-28T12:02:19.570Z,2.50
2019-03-28T12:03:08.442Z,2.50
2019-03-28T12:04:08.326Z,2.20
2019-03-28T12:05:08.231Z,1.90
2019-03-28T12:06:08.137Z,1.80
2019-03-28T12:07:08.044Z,2.10
2019-03-28T12:08:08.105Z,2.10
2019-03-28T12:09:07.847Z,2.40
2019-03-28T12:10:07.753Z,2.40
2019-03-28T12:11:07.658Z,2.10
2019-03-28T12:12:07.563Z,1.90
2019-03-28T12:13:07.476Z,2.10
2019-03-28T12:14:07.365Z,2.00
2019-03-28T12:15:07.390Z,1.80
2019-03-28T12:16:07.174Z,1.60
2019-03-28T12:17:07.082Z,2.00
2019-03-28T12:18:06.998Z,1.70
2019-03-28T12:19:06.887Z,2.20
2019-03-28T12:20:06.794Z,2.60
2019-03-28T12:21:06.691Z,2.40
2019-03-28T12:22:06.703Z,2.60
2019-03-28T12:23:06.519Z,2.10
2019-03-28T12:24:06.409Z,2.30
2019-03-28T12:25:06.337Z,2.70
2019-03-28T12:26:06.215Z,2.40
2019-03-28T12:27:06.120Z,2.40
2019-03-28T12:28:06.042Z,2.50
2019-03-28T12:29:06.066Z,2.50
2019-03-28T12:30:05.833Z,2.50
2019-03-28T12:31:05.734Z,2.20
2019-03-28T12:32:13.961Z,2.50
2019-03-28T12:33:05.561Z,2.60
2019-03-28T12:34:05.462Z,2.50
2019-03-28T12:35:05.353Z,2.40
2019-03-28T12:36:05.358Z,2.40
2019-03-28T12:37:05.161Z,2.50
2019-03-28T12:38:05.082Z,2.30
2019-03-28T12:39:04.969Z,2.50
2019-03-28T12:40:04.873Z,2.70
2019-03-28T12:41:04.775Z,2.30
2019-03-28T12:42:04.802Z,2.30
2019-03-28T12:43:04.606Z,2.30
2019-03-28T12:44:04.611Z,2.30
2019-03-28T12:45:04.392Z,2.70
2019-03-28T12:46:04.296Z,2.30
2019-03-28T12:47:04.201Z,2.60
2019-03-28T12:48:04.118Z,2.00
2019-03-28T12:49:04.005Z,1.90
2019-03-28T12:50:04.016Z,2.00
2019-03-28T12:51:03.815Z,2.20
2019-03-28T12:52:03.721Z,2.10
2019-03-28T12:53:03.640Z,2.10
2019-03-28T12:54:03.527Z,2.60
2019-03-28T12:55:03.431Z,2.90
2019-03-28T12:56:03.338Z,2.50
2019-03-28T12:57:03.237Z,2.60
2019-03-28T12:58:03.157Z,2.80